Logan Cache Airport
KLGU : now visible

Airfield :











YOU CAN JOIN US ON...

 
LOGIN :

Register | Disclaimer

   EN    FR    IT 

 









Legend :    VFR   Marginal VFR   IFR   Intensive IFR   Very Intensive IFR
Visi :
Ceiling :
>= 8 km
>= 3000ft
5 to 8 km
1000 to 3000 ft
1500m to 5 km
500 to 1000 ft
800 to 1500m
200 to 500 ft
< 800m
< 200 ft
Symbols :   Thunderstorms  Fog  Heavy snow  Heavy precipitations  Wind > 20 kt







- Airport Elevation : 4457 ft


KLGU - Logan Cache

CURRENT METAR :
  • 201551Z AUTO 21006KT 10SM -RA BKN012 OVC044 08/07 A2994 RMK AO2 SLP119 P0001 T00830067

EXPIRED METARs :
  • 201543Z AUTO 22007KT 10SM -RA SCT010 BKN013 OVC046 08/07 A2994 RMK AO2 P0001 T00830067
  • 201451Z AUTO 00000KT 10SM -RA BKN037 OVC049 08/06 A2993 RMK AO2 SLP111 P0004 60011 T00830061 53007
  • 201407Z AUTO 24003KT 10SM -RA OVC043 08/07 A2992 RMK AO2 P0000 T00830067
  • 201351Z AUTO 26003KT 10SM VCTS -RA BKN045 OVC055 08/07 A2991 RMK AO2 SLP105 P0002 T00780067
  • 201341Z AUTO 24004KT 10SM VCTS -RA BKN049 OVC060 08/07 A2991 RMK AO2 P0001 T00780067

TAF KLGU
Valid from the 20 at 12:00 until the 21 at 12:00 UTC


201120Z 2012/2112 35007KT P6SM BKN080 OVC100
FM201500 34009KT P6SM -RA BKN025 OVC060
FM202100 21005KT P6SM -SHRA BKN050 OVC070
FM210200 18004KT P6SM VCSH BKN080
FM210600 VRB04KT P6SM BCFG SCT080
No reported NOTAMs for that airfield.



MET'MAP, your aeronautical weather chart ! - Copyright ORBIFLY December 2007 - Disclaimer

ORBIFLY MET'MAP TEAM :

Programming & Development : Alexandra Zaïnal
Concept & Development : Baudouin d'Aumeries
Co-Development & Prog : Marc-Olivier Méhu
Technical & hardware support : Manuel Goepfert

Contact : metmap@orbifly.com




SOURCES & CREDITS :

   NOAA       Earth
Advisory